Time;durP1;ratioP1;P1;durP2;ratioP2;P2;SDS_P1;SDS_P2;PMS_P1;PMS_P2;Temp;Humidity;BMP_temperature;BMP_pressure;BME280_temperature;BME280_humidity;BME280_pressure;Samples;Min_cycle;Max_cycle;Signal;HPM_P1;HPM_P2
2023/03/14 00:00:38;;;;;;;29.30;5.53;;;9.50;99.90;;;;;;5092920;28;20135;-80
2023/03/14 00:03:03;;;;;;;33.40;7.07;;;9.50;99.90;;;;;;5094080;28;20396;-81
2023/03/14 00:05:29;;;;;;;27.80;6.67;;;9.50;99.90;;;;;;5094093;28;20285;-80
2023/03/14 00:07:55;;;;;;;27.17;5.13;;;9.50;99.90;;;;;;5094048;28;20503;-80
2023/03/14 00:10:21;;;;;;;27.23;4.97;;;9.50;99.90;;;;;;5094408;28;20044;-78
2023/03/14 00:12:46;;;;;;;23.97;5.20;;;9.50;99.90;;;;;;5093986;28;20059;-80
2023/03/14 00:15:13;;;;;;;25.13;6.67;;;9.60;99.90;;;;;;5093950;28;20277;-80
2023/03/14 00:17:39;;;;;;;27.87;5.47;;;9.60;99.90;;;;;;5093904;28;20116;-80
2023/03/14 00:20:09;;;;;;;22.57;4.73;;;9.60;99.90;;;;;;5094182;28;20416;-80
2023/03/14 00:22:36;;;;;;;18.90;4.83;;;9.60;99.90;;;;;;5093809;28;20335;-80
2023/03/14 00:25:03;;;;;;;25.10;5.03;;;9.50;99.90;;;;;;5093955;28;20293;-80
2023/03/14 00:27:29;;;;;;;26.63;5.80;;;9.50;99.90;;;;;;5093793;28;20365;-79
2023/03/14 00:29:54;;;;;;;28.60;6.23;;;9.50;99.90;;;;;;5093792;28;20310;-79
2023/03/14 00:32:23;;;;;;;24.73;5.63;;;9.50;99.90;;;;;;5093725;28;20044;-79
2023/03/14 00:34:49;;;;;;;25.03;5.50;;;9.50;99.90;;;;;;5093694;28;20048;-79
2023/03/14 00:37:15;;;;;;;20.63;4.83;;;9.50;99.90;;;;;;5075884;28;20348;-79
2023/03/14 00:39:41;;;;;;;21.30;5.13;;;9.50;99.90;;;;;;5093572;28;20282;-79
2023/03/14 00:42:07;;;;;;;23.10;4.93;;;9.50;99.90;;;;;;5094039;28;20048;-79
2023/03/14 00:44:32;;;;;;;29.17;5.83;;;9.50;99.90;;;;;;5093500;28;20288;-79
2023/03/14 00:46:58;;;;;;;24.03;4.57;;;9.50;99.90;;;;;;5093502;28;20494;-79
2023/03/14 00:49:24;;;;;;;26.93;5.57;;;9.50;99.90;;;;;;5092316;28;20044;-79
2023/03/14 00:51:51;;;;;;;26.77;5.73;;;9.50;99.90;;;;;;5093526;28;20048;-79
2023/03/14 00:54:17;;;;;;;21.97;3.83;;;9.50;99.90;;;;;;5093497;28;20274;-79
2023/03/14 00:56:43;;;;;;;27.00;4.93;;;9.50;99.90;;;;;;5094007;28;20286;-78
2023/03/14 00:59:09;;;;;;;27.77;5.20;;;9.50;99.90;;;;;;5092072;28;20290;-78
2023/03/14 01:01:35;;;;;;;23.20;4.73;;;9.50;99.90;;;;;;5093940;28;20439;-78
2023/03/14 01:04:01;;;;;;;23.20;4.90;;;9.60;99.90;;;;;;5093309;28;20305;-78
2023/03/14 01:06:28;;;;;;;22.97;4.43;;;9.60;99.90;;;;;;5093428;28;20281;-77
2023/03/14 01:08:55;;;;;;;24.17;4.77;;;9.60;99.90;;;;;;5094161;28;20048;-79
2023/03/14 01:11:33;;;;;;;21.17;4.37;;;9.60;99.90;;;;;;5093400;28;20278;-79
2023/03/14 01:13:59;;;;;;;19.20;4.50;;;9.70;99.90;;;;;;5093664;28;20272;-79
2023/03/14 01:16:27;;;;;;;19.50;3.97;;;9.70;99.90;;;;;;5093331;28;20319;-79
2023/03/14 01:18:53;;;;;;;23.13;4.53;;;9.70;99.90;;;;;;5093299;28;20357;-79
2023/03/14 01:21:28;;;;;;;28.73;4.63;;;9.80;99.90;;;;;;5093446;28;20390;-79
2023/03/14 01:23:55;;;;;;;23.15;4.50;;;9.80;99.90;;;;;;5097100;28;20040;-79
2023/03/14 01:26:23;;;;;;;22.13;3.67;;;9.80;99.90;;;;;;5096011;28;20442;-79
2023/03/14 01:28:50;;;;;;;17.20;4.63;;;9.80;99.90;;;;;;5096349;28;20292;-79
2023/03/14 01:31:16;;;;;;;19.33;4.17;;;9.80;99.90;;;;;;5097855;28;20297;-79
2023/03/14 01:33:42;;;;;;;23.03;3.73;;;9.80;99.90;;;;;;5097774;28;20341;-78
2023/03/14 01:36:09;;;;;;;14.37;3.80;;;9.80;99.90;;;;;;5096747;28;20766;-79
2023/03/14 01:38:37;;;;;;;18.73;3.93;;;9.90;99.90;;;;;;5096613;28;20356;-79
2023/03/14 01:41:03;;;;;;;17.90;3.17;;;9.80;99.90;;;;;;5096564;28;20828;-79
2023/03/14 01:43:30;;;;;;;18.23;3.77;;;9.80;99.90;;;;;;5096755;28;20439;-79
2023/03/14 01:46:16;;;;;;;15.40;3.67;;;9.80;99.90;;;;;;5096763;28;20305;-79
2023/03/14 01:49:06;;;;;;;26.95;4.95;;;9.80;99.90;;;;;;5096602;28;20290;-80
2023/03/14 01:51:46;;;;;;;22.57;4.27;;;9.80;99.90;;;;;;5097542;28;20052;-80
2023/03/14 01:54:24;;;;;;;17.83;3.27;;;9.80;99.90;;;;;;5096610;28;20623;-80
2023/03/14 01:57:25;;;;;;;19.73;3.73;;;9.70;99.90;;;;;;5097118;28;20278;-80
2023/03/14 01:59:56;;;;;;;15.40;3.60;;;9.70;99.90;;;;;;5095758;28;20332;-80
2023/03/14 02:02:24;;;;;;;18.23;4.03;;;9.70;99.90;;;;;;5095097;28;20322;-80
2023/03/14 02:04:51;;;;;;;19.63;3.73;;;9.70;99.90;;;;;;5096365;28;20294;-80
2023/03/14 02:07:22;;;;;;;19.80;4.57;;;9.60;99.90;;;;;;5096354;28;20379;-79
2023/03/14 02:09:49;;;;;;;20.47;3.77;;;9.60;99.90;;;;;;5097162;28;20324;-79
2023/03/14 02:12:16;;;;;;;25.37;4.10;;;9.60;99.90;;;;;;5096300;28;20282;-80
2023/03/14 02:14:47;;;;;;;22.27;4.30;;;9.60;99.90;;;;;;5096196;28;20365;-79
2023/03/14 02:17:15;;;;;;;21.47;3.30;;;9.60;99.90;;;;;;5095628;28;20286;-80
2023/03/14 02:19:44;;;;;;;17.50;3.57;;;9.60;99.90;;;;;;5096645;28;20326;-79
2023/03/14 02:22:15;;;;;;;17.07;3.13;;;9.60;99.90;;;;;;5095967;28;20325;-80
2023/03/14 02:25:12;;;;;;;20.23;2.93;;;9.60;99.90;;;;;;5096636;28;20379;-79
2023/03/14 02:27:38;;;;;;;18.03;3.33;;;9.60;99.90;;;;;;5096010;28;20278;-79
2023/03/14 02:30:27;;;;;;;15.33;2.60;;;9.50;99.90;;;;;;5095998;28;20281;-80
2023/03/14 02:32:58;;;;;;;17.23;3.67;;;9.50;99.90;;;;;;5096076;28;20371;-79
2023/03/14 02:35:32;;;;;;;20.17;2.90;;;9.50;99.90;;;;;;5095953;28;20597;-80
2023/03/14 02:38:07;;;;;;;16.20;3.47;;;9.50;99.90;;;;;;5095784;28;20270;-80
2023/03/14 02:40:33;;;;;;;13.68;2.65;;;9.50;99.90;;;;;;5096346;28;20289;-79
2023/03/14 02:42:58;;;;;;;15.83;2.60;;;9.50;99.90;;;;;;5095331;28;20048;-80
2023/03/14 02:45:24;;;;;;;22.17;4.87;;;9.40;99.90;;;;;;5095657;28;20089;-80
2023/03/14 02:47:57;;;;;;;18.90;3.70;;;9.40;99.90;;;;;;5095633;28;20052;-80
2023/03/14 02:50:26;;;;;;;21.87;4.00;;;9.30;99.90;;;;;;5096482;28;20054;-79
2023/03/14 02:52:52;;;;;;;18.97;4.10;;;9.30;99.90;;;;;;5096288;28;20650;-79
2023/03/14 02:55:22;;;;;;;19.23;3.17;;;9.30;99.90;;;;;;5095525;28;20289;-81
2023/03/14 02:57:47;;;;;;;22.83;3.60;;;9.30;99.90;;;;;;5095384;28;20480;-81
2023/03/14 03:00:14;;;;;;;22.70;4.03;;;9.20;99.90;;;;;;5093963;28;20377;-82
2023/03/14 03:02:40;;;;;;;21.43;3.43;;;9.20;99.90;;;;;;5095276;28;20052;-82
2023/03/14 03:05:06;;;;;;;15.77;3.57;;;9.20;99.90;;;;;;5095225;28;20327;-82
2023/03/14 03:07:32;;;;;;;19.77;4.30;;;9.20;99.90;;;;;;5095855;28;20101;-81
2023/03/14 03:09:58;;;;;;;22.47;4.10;;;9.20;99.90;;;;;;5095132;28;20282;-81
2023/03/14 03:12:23;;;;;;;22.27;4.13;;;9.20;99.90;;;;;;5095666;28;20040;-81
2023/03/14 03:14:49;;;;;;;21.37;3.83;;;9.10;99.90;;;;;;5095105;28;20052;-80
2023/03/14 03:17:15;;;;;;;23.80;4.50;;;9.10;99.90;;;;;;5093827;28;20097;-81
2023/03/14 03:19:41;;;;;;;23.77;4.60;;;9.10;99.90;;;;;;5093748;28;20141;-80
2023/03/14 03:22:07;;;;;;;23.47;5.03;;;9.10;99.90;;;;;;5093958;28;20110;-81
2023/03/14 03:24:33;;;;;;;22.67;3.63;;;9.10;99.90;;;;;;5094902;28;20491;-80
2023/03/14 03:26:58;;;;;;;23.57;4.27;;;9.10;99.90;;;;;;5094485;28;20370;-80
2023/03/14 03:29:24;;;;;;;24.93;4.57;;;9.10;99.90;;;;;;5094814;28;20044;-80
2023/03/14 03:31:50;;;;;;;27.17;4.47;;;9.10;99.90;;;;;;5095253;28;20075;-80
2023/03/14 03:34:15;;;;;;;26.23;4.37;;;9.10;99.90;;;;;;5093308;28;20218;-80
2023/03/14 03:36:42;;;;;;;25.43;4.77;;;9.10;99.90;;;;;;5094641;28;20530;-80
2023/03/14 03:39:08;;;;;;;24.03;3.87;;;9.10;99.90;;;;;;5094583;28;20044;-80
2023/03/14 03:41:34;;;;;;;28.27;5.37;;;9.10;99.90;;;;;;5093781;28;20339;-80
2023/03/14 03:43:59;;;;;;;30.73;5.07;;;9.10;99.90;;;;;;5094445;28;20127;-80
2023/03/14 03:46:25;;;;;;;29.60;4.47;;;9.10;99.90;;;;;;5094290;28;20328;-80
2023/03/14 03:48:56;;;;;;;28.33;4.23;;;9.10;99.90;;;;;;5094415;28;20056;-80
2023/03/14 03:51:21;;;;;;;27.63;5.23;;;9.10;99.90;;;;;;5094397;28;20048;-80
2023/03/14 03:53:47;;;;;;;29.73;4.73;;;9.10;99.90;;;;;;5093193;28;20347;-77
2023/03/14 03:56:13;;;;;;;34.07;5.20;;;9.10;99.90;;;;;;5093135;28;20044;-80
2023/03/14 03:58:38;;;;;;;27.00;4.50;;;9.10;99.90;;;;;;5093738;28;20116;-80
2023/03/14 04:01:06;;;;;;;30.77;5.37;;;9.10;99.90;;;;;;5093059;28;20051;-80
2023/03/14 04:03:32;;;;;;;30.03;5.30;;;9.10;99.90;;;;;;5094888;28;20051;-80
2023/03/14 04:06:03;;;;;;;27.00;4.80;;;9.10;99.90;;;;;;5094368;28;20293;-79
2023/03/14 04:08:30;;;;;;;27.23;4.90;;;9.10;99.90;;;;;;5094207;28;20321;-80
2023/03/14 04:11:00;;;;;;;29.87;4.77;;;9.10;99.90;;;;;;5094788;28;20305;-79
2023/03/14 04:13:27;;;;;;;27.13;5.07;;;9.10;99.90;;;;;;5094133;28;20288;-80
2023/03/14 04:15:54;;;;;;;22.60;4.90;;;9.10;99.90;;;;;;5094527;28;20697;-79
2023/03/14 04:18:21;;;;;;;23.53;4.13;;;9.10;99.90;;;;;;5093971;28;20282;-79
2023/03/14 04:20:52;;;;;;;25.30;4.87;;;9.10;99.90;;;;;;5093936;28;20642;-79
2023/03/14 04:23:17;;;;;;;28.90;4.60;;;9.10;99.90;;;;;;5094438;28;20294;-79
2023/03/14 04:25:43;;;;;;;19.07;4.10;;;9.10;99.90;;;;;;5093143;28;20656;-80
2023/03/14 04:28:09;;;;;;;26.73;4.73;;;9.10;99.90;;;;;;5093816;28;20126;-81
2023/03/14 04:30:34;;;;;;;23.03;4.37;;;9.00;99.90;;;;;;5093792;28;20047;-81
2023/03/14 04:33:00;;;;;;;29.27;4.10;;;9.00;99.90;;;;;;5093495;28;20055;-80
2023/03/14 04:35:26;;;;;;;21.37;4.47;;;9.00;99.90;;;;;;5093835;28;20504;-80
2023/03/14 04:37:52;;;;;;;36.50;4.87;;;9.00;99.90;;;;;;5093446;28;20056;-80
2023/03/14 04:40:18;;;;;;;28.73;4.70;;;9.00;99.90;;;;;;5093757;28;20047;-80
2023/03/14 04:42:43;;;;;;;23.80;4.37;;;9.00;99.90;;;;;;5092494;28;20044;-81
2023/03/14 04:45:09;;;;;;;20.53;4.00;;;9.00;99.90;;;;;;5093486;28;20342;-81
2023/03/14 04:47:35;;;;;;;23.63;4.53;;;9.00;99.90;;;;;;5092158;28;20085;-80
2023/03/14 04:50:01;;;;;;;23.77;5.13;;;9.00;99.90;;;;;;5093501;28;20472;-78
2023/03/14 04:52:27;;;;;;;23.17;5.60;;;9.00;99.90;;;;;;5093570;28;20277;-78
2023/03/14 04:54:52;;;;;;;20.20;5.03;;;8.90;99.90;;;;;;5093470;28;20056;-77
2023/03/14 04:57:18;;;;;;;18.10;4.83;;;9.00;99.90;;;;;;5094812;28;20047;-77
2023/03/14 04:59:44;;;;;;;22.20;5.13;;;8.90;99.90;;;;;;5097592;28;20484;-77
2023/03/14 05:02:10;;;;;;;22.87;5.47;;;8.90;99.90;;;;;;5097551;28;20052;-78
2023/03/14 05:04:36;;;;;;;18.17;5.87;;;8.90;99.90;;;;;;5097452;28;20046;-77
2023/03/14 05:07:01;;;;;;;22.77;5.80;;;8.90;99.90;;;;;;5097485;28;20484;-78
2023/03/14 05:09:27;;;;;;;25.97;5.53;;;8.90;99.90;;;;;;5098035;28;20040;-76
2023/03/14 05:11:53;;;;;;;19.50;5.67;;;8.90;99.90;;;;;;5097946;28;20097;-76
2023/03/14 05:14:19;;;;;;;21.27;7.00;;;8.90;99.90;;;;;;5097330;28;20468;-76
2023/03/14 05:16:44;;;;;;;20.80;5.70;;;8.90;99.90;;;;;;5096309;28;20055;-76
2023/03/14 05:19:10;;;;;;;22.60;5.60;;;8.90;99.90;;;;;;5097293;28;20047;-76
2023/03/14 05:21:36;;;;;;;21.10;6.30;;;8.90;99.90;;;;;;5079329;28;20563;-77
2023/03/14 05:24:02;;;;;;;13.07;5.67;;;8.90;99.90;;;;;;5097568;28;20385;-77
2023/03/14 05:26:28;;;;;;;18.37;5.93;;;8.90;99.90;;;;;;5097223;28;20048;-78
2023/03/14 05:28:54;;;;;;;16.10;6.07;;;8.80;99.90;;;;;;5096476;28;20204;-78
2023/03/14 05:31:19;;;;;;;17.87;5.27;;;8.90;99.90;;;;;;5097030;28;20067;-77
2023/03/14 05:33:45;;;;;;;11.63;5.13;;;8.90;99.90;;;;;;5097024;28;20460;-78
2023/03/14 05:36:11;;;;;;;16.97;6.27;;;8.90;99.90;;;;;;5096956;28;20051;-77
2023/03/14 05:38:37;;;;;;;16.90;5.00;;;8.80;99.90;;;;;;5096981;28;20126;-77
2023/03/14 05:41:03;;;;;;;11.60;4.87;;;8.90;99.90;;;;;;5097027;28;20135;-77
2023/03/14 05:43:28;;;;;;;15.17;5.10;;;8.90;99.90;;;;;;5096751;28;20529;-77
2023/03/14 05:45:54;;;;;;;11.27;5.23;;;8.90;99.90;;;;;;5078963;28;20286;-76
2023/03/14 05:48:21;;;;;;;15.67;5.53;;;8.90;99.90;;;;;;5096727;28;20080;-77
2023/03/14 05:50:47;;;;;;;19.97;6.07;;;8.80;99.90;;;;;;5096712;28;20135;-77
2023/03/14 05:53:13;;;;;;;16.03;5.70;;;8.90;99.90;;;;;;5096689;28;20270;-77
2023/03/14 05:55:39;;;;;;;13.43;6.00;;;8.80;99.90;;;;;;5096588;28;20784;-77
2023/03/14 05:58:06;;;;;;;14.17;4.83;;;8.80;99.90;;;;;;5096555;28;20051;-78
2023/03/14 06:00:31;;;;;;;13.97;5.17;;;8.80;99.90;;;;;;5097075;28;20332;-78
2023/03/14 06:02:57;;;;;;;10.97;5.33;;;8.80;99.90;;;;;;5096126;28;20777;-77
2023/03/14 06:05:23;;;;;;;11.80;5.03;;;8.80;99.90;;;;;;5096961;28;20046;-77
2023/03/14 06:07:49;;;;;;;11.53;5.10;;;8.80;99.90;;;;;;5096068;28;20066;-77
2023/03/14 06:10:14;;;;;;;13.30;5.50;;;8.80;99.90;;;;;;5096236;28;20480;-76
2023/03/14 06:12:40;;;;;;;9.63;4.67;;;8.80;99.90;;;;;;5096150;28;20052;-76
2023/03/14 06:15:06;;;;;;;17.20;4.77;;;8.80;99.90;;;;;;5096127;28;20047;-77
2023/03/14 06:17:32;;;;;;;14.50;4.67;;;8.80;99.90;;;;;;5096110;28;20186;-76
2023/03/14 06:19:58;;;;;;;13.77;2.63;;;8.80;99.90;;;;;;5095649;28;20373;-76
2023/03/14 06:22:24;;;;;;;10.17;1.90;;;8.80;99.90;;;;;;5096255;28;20476;-77
2023/03/14 06:24:49;;;;;;;10.93;2.13;;;8.60;99.90;;;;;;5095396;28;20583;-76
2023/03/14 06:27:15;;;;;;;17.53;2.23;;;8.40;99.90;;;;;;5095785;28;20070;-77
2023/03/14 06:29:41;;;;;;;7.97;1.67;;;8.20;99.90;;;;;;5095958;28;20059;-78
2023/03/14 06:32:07;;;;;;;13.10;1.90;;;7.90;99.90;;;;;;5095906;28;20282;-78
2023/03/14 06:34:33;;;;;;;12.77;2.13;;;7.70;99.90;;;;;;5095915;28;20052;-78
2023/03/14 06:36:58;;;;;;;14.70;2.87;;;7.50;99.90;;;;;;5095833;28;20042;-79
2023/03/14 06:39:24;;;;;;;21.00;2.53;;;7.40;99.90;;;;;;5095744;28;20088;-78
2023/03/14 06:41:50;;;;;;;22.57;2.47;;;7.20;99.90;;;;;;5095740;28;20059;-79
2023/03/14 06:44:16;;;;;;;20.80;3.23;;;7.20;99.90;;;;;;5095283;28;20290;-77
2023/03/14 06:46:41;;;;;;;19.87;2.70;;;7.10;99.90;;;;;;5095692;28;20126;-77
2023/03/14 06:49:07;;;;;;;20.20;2.27;;;7.00;99.90;;;;;;5095541;28;20120;-77
2023/03/14 06:51:33;;;;;;;18.27;2.83;;;6.90;99.90;;;;;;5094514;28;20115;-78
2023/03/14 06:53:59;;;;;;;15.53;2.40;;;6.70;99.90;;;;;;5094350;28;20044;-77
2023/03/14 06:56:25;;;;;;;17.37;2.47;;;6.60;99.90;;;;;;5094437;28;20788;-78
2023/03/14 06:58:50;;;;;;;19.30;2.93;;;6.50;99.90;;;;;;5095200;28;20048;-76
2023/03/14 07:01:29;;;;;;;15.57;2.90;;;6.50;99.90;;;;;;5095280;28;20067;-77
2023/03/14 07:03:54;;;;;;;16.80;2.27;;;6.30;99.90;;;;;;5095472;28;20480;-78
2023/03/14 07:06:21;;;;;;;8.63;1.77;;;6.30;99.90;;;;;;5095188;28;20303;-78
2023/03/14 07:08:46;;;;;;;10.80;1.30;;;6.20;99.90;;;;;;5095417;28;20052;-78
2023/03/14 07:11:12;;;;;;;10.60;1.60;;;6.10;99.90;;;;;;5094360;28;20290;-78
2023/03/14 07:13:39;;;;;;;6.90;1.60;;;6.00;99.90;;;;;;5095616;28;20101;-78
2023/03/14 07:16:05;;;;;;;11.55;1.73;;;5.90;99.90;;;;;;5095064;28;20051;-78
2023/03/14 07:18:31;;;;;;;11.75;1.65;;;5.80;99.90;;;;;;5094931;28;20059;-77
2023/03/14 07:20:57;;;;;;;11.37;1.10;;;5.70;99.90;;;;;;5094208;28;20082;-77
2023/03/14 07:23:23;;;;;;;6.67;1.30;;;5.70;99.90;;;;;;5094746;28;20040;-78
2023/03/14 07:25:48;;;;;;;12.73;1.80;;;5.70;99.90;;;;;;5095362;28;20051;-78
2023/03/14 07:28:14;;;;;;;6.73;1.33;;;5.60;99.90;;;;;;5094796;28;20079;-77
2023/03/14 07:30:40;;;;;;;13.17;1.90;;;5.60;99.90;;;;;;5095546;28;20044;-77
2023/03/14 07:33:05;;;;;;;12.33;1.97;;;5.70;99.90;;;;;;5094769;28;20098;-77
2023/03/14 07:35:31;;;;;;;11.00;1.43;;;5.60;99.90;;;;;;5094921;28;20086;-78
2023/03/14 07:37:57;;;;;;;6.77;1.47;;;5.70;99.90;;;;;;5095167;28;20048;-78
2023/03/14 07:40:22;;;;;;;8.23;1.37;;;5.60;99.90;;;;;;5093277;28;20075;-78
2023/03/14 07:42:49;;;;;;;6.83;1.27;;;5.60;99.90;;;;;;5094941;28;20064;-78
2023/03/14 07:45:15;;;;;;;5.47;0.90;;;5.60;99.90;;;;;;5094394;28;20492;-77
2023/03/14 07:47:41;;;;;;;11.65;1.38;;;5.60;99.90;;;;;;5095233;28;20048;-78
2023/03/14 07:50:07;;;;;;;9.43;1.37;;;5.70;99.90;;;;;;5094389;28;20469;-78
2023/03/14 07:52:33;;;;;;;8.95;1.48;;;5.70;99.90;;;;;;5094321;28;20052;-78
2023/03/14 07:54:59;;;;;;;11.40;1.33;;;5.70;99.90;;;;;;5094283;28;20476;-78
2023/03/14 07:57:25;;;;;;;11.53;1.83;;;5.70;99.90;;;;;;5094559;28;20048;-77
2023/03/14 07:59:51;;;;;;;13.60;1.77;;;5.70;99.90;;;;;;5094353;28;20595;-75
2023/03/14 08:02:17;;;;;;;12.73;1.93;;;5.70;99.90;;;;;;5094522;28;20408;-74
2023/03/14 08:04:43;;;;;;;9.35;1.40;;;5.80;99.90;;;;;;5094095;28;20379;-77
2023/03/14 08:07:09;;;;;;;12.17;2.43;;;5.90;99.90;;;;;;5094926;28;20047;-77
2023/03/14 08:09:35;;;;;;;9.70;2.37;;;5.90;99.90;;;;;;5094015;28;20445;-76
2023/03/14 08:12:00;;;;;;;12.37;2.90;;;6.10;99.90;;;;;;5093627;28;20130;-76
2023/03/14 08:14:28;;;;;;;15.10;2.23;;;6.10;99.90;;;;;;5094823;28;20139;-76
2023/03/14 08:16:54;;;;;;;17.60;3.42;;;6.10;99.90;;;;;;5094622;28;20087;-76
2023/03/14 08:19:20;;;;;;;14.20;2.40;;;6.10;99.90;;;;;;5094701;28;20087;-76
2023/03/14 08:21:46;;;;;;;13.13;3.40;;;6.10;99.90;;;;;;5094447;28;20054;-75
2023/03/14 08:24:12;;;;;;;11.97;2.50;;;6.10;99.90;;;;;;5093840;28;20052;-75
2023/03/14 08:26:38;;;;;;;10.90;2.33;;;6.20;99.90;;;;;;5093792;28;20054;-75
2023/03/14 08:29:04;;;;;;;11.73;2.73;;;6.30;99.90;;;;;;5093578;28;20087;-76
2023/03/14 08:31:30;;;;;;;14.93;2.58;;;6.30;99.90;;;;;;5093739;28;20079;-76
2023/03/14 08:33:59;;;;;;;14.25;2.83;;;6.30;99.90;;;;;;5093764;28;20048;-76
2023/03/14 08:36:25;;;;;;;15.73;2.95;;;6.40;99.90;;;;;;5093676;28;20472;-76
2023/03/14 08:38:50;;;;;;;17.97;3.50;;;6.40;99.90;;;;;;5093441;28;20055;-77
2023/03/14 08:41:16;;;;;;;17.30;3.33;;;6.40;99.90;;;;;;5093608;28;20540;-77
2023/03/14 08:43:42;;;;;;;19.67;3.20;;;6.50;99.90;;;;;;5092401;28;20096;-77
2023/03/14 08:46:07;;;;;;;21.13;4.30;;;6.50;99.90;;;;;;5093853;28;20127;-76
2023/03/14 08:48:33;;;;;;;21.37;4.17;;;6.60;99.90;;;;;;5093606;28;20052;-76
2023/03/14 08:51:13;;;;;;;13.73;2.43;;;6.70;99.90;;;;;;5092136;28;20483;-76
2023/03/14 08:53:39;;;;;;;21.35;4.05;;;6.90;99.90;;;;;;5094398;28;20036;-77
2023/03/14 08:56:06;;;;;;;18.93;3.60;;;7.00;99.90;;;;;;5094099;28;20055;-76
2023/03/14 08:58:32;;;;;;;20.33;4.30;;;7.20;99.90;;;;;;5093488;28;20290;-76
2023/03/14 09:00:58;;;;;;;23.80;3.73;;;7.30;99.90;;;;;;5093489;28;20329;-76
2023/03/14 09:03:25;;;;;;;17.17;3.93;;;7.40;99.90;;;;;;5092003;28;20384;-76
2023/03/14 09:05:51;;;;;;;18.90;3.37;;;7.50;99.90;;;;;;5094290;28;20449;-77
2023/03/14 09:08:17;;;;;;;25.80;3.77;;;7.40;99.90;;;;;;5093708;28;20278;-76
2023/03/14 09:10:44;;;;;;;21.50;3.27;;;7.20;99.90;;;;;;5093401;28;20308;-77
2023/03/14 09:13:09;;;;;;;17.03;3.43;;;7.10;99.90;;;;;;5092217;28;20270;-77
2023/03/14 09:15:35;;;;;;;27.53;3.20;;;7.10;99.90;;;;;;5093814;28;20280;-78
2023/03/14 09:18:01;;;;;;;24.73;4.40;;;7.00;99.90;;;;;;5093369;28;20044;-78
2023/03/14 09:20:27;;;;;;;26.80;4.13;;;7.10;99.90;;;;;;5093128;28;20106;-78
2023/03/14 09:22:53;;;;;;;23.93;4.23;;;7.10;99.90;;;;;;5093202;28;20338;-77
2023/03/14 09:25:19;;;;;;;22.90;3.90;;;7.10;99.90;;;;;;5093351;28;20127;-76
2023/03/14 09:27:44;;;;;;;24.60;4.83;;;7.10;99.90;;;;;;5093717;28;20123;-78
2023/03/14 09:30:11;;;;;;;17.60;3.40;;;7.10;99.90;;;;;;5096970;28;20052;-79
2023/03/14 09:32:36;;;;;;;25.10;4.10;;;7.20;99.90;;;;;;5092005;28;20048;-76
2023/03/14 09:35:02;;;;;;;28.33;4.40;;;7.20;99.90;;;;;;5093229;28;20334;-79
2023/03/14 09:37:28;;;;;;;21.10;4.80;;;7.20;99.90;;;;;;5093142;28;20044;-79
2023/03/14 09:39:53;;;;;;;24.03;3.60;;;7.20;99.90;;;;;;5093052;28;20569;-79
2023/03/14 09:42:28;;;;;;;25.40;3.93;;;7.20;99.90;;;;;;5092594;28;20048;-79
2023/03/14 09:45:00;;;;;;;20.77;3.55;;;7.10;99.90;;;;;;5096858;28;20044;-78
2023/03/14 09:47:26;;;;;;;22.53;4.03;;;7.10;99.90;;;;;;5096818;28;20047;-78
2023/03/14 09:49:52;;;;;;;28.00;4.13;;;7.10;99.90;;;;;;5096404;28;20770;-81
2023/03/14 09:52:36;;;;;;;22.93;3.60;;;7.20;99.90;;;;;;5096502;28;20286;-78
2023/03/14 09:55:04;;;;;;;25.63;4.43;;;7.20;99.90;;;;;;5097370;28;20281;-79
2023/03/14 09:57:33;;;;;;;25.27;3.67;;;7.30;99.90;;;;;;5095566;28;20275;-80
2023/03/14 10:00:13;;;;;;;19.53;4.67;;;7.30;99.90;;;;;;5095419;28;20282;-79
2023/03/14 10:02:42;;;;;;;28.17;5.30;;;7.40;99.90;;;;;;5097328;28;20279;-77
2023/03/14 10:05:19;;;;;;;20.47;3.17;;;7.40;99.90;;;;;;5096505;28;20278;-78
2023/03/14 10:07:45;;;;;;;20.37;4.40;;;7.60;99.90;;;;;;5097285;28;20324;-79
2023/03/14 10:10:22;;;;;;;24.03;3.80;;;7.70;99.90;;;;;;5096453;28;20321;-81
2023/03/14 10:12:59;;;;;;;28.40;4.50;;;7.70;99.90;;;;;;5096925;28;20349;-79
2023/03/14 10:15:32;;;;;;;22.57;3.33;;;7.80;99.90;;;;;;5096852;28;20327;-77
2023/03/14 10:18:01;;;;;;;18.00;4.00;;;7.70;99.90;;;;;;5094826;28;20746;-75
2023/03/14 10:20:42;;;;;;;16.23;3.07;;;7.70;99.90;;;;;;5096494;28;20281;-82
2023/03/14 10:23:13;;;;;;;19.37;4.30;;;7.60;99.90;;;;;;5096208;28;20303;-80
2023/03/14 10:25:45;;;;;;;18.13;2.70;;;7.50;99.90;;;;;;5095047;28;20294;-80
2023/03/14 10:28:28;;;;;;;20.50;2.77;;;7.60;99.90;;;;;;5095195;28;20381;-81
2023/03/14 10:30:55;;;;;;;14.43;3.00;;;7.60;99.90;;;;;;5096140;28;20336;-86
2023/03/14 10:33:27;;;;;;;16.73;3.83;;;7.50;99.90;;;;;;5078130;28;20633;-77
2023/03/14 10:35:59;;;;;;;16.27;3.43;;;7.60;99.90;;;;;;5096676;28;20290;-76
2023/03/14 10:38:34;;;;;;;17.77;3.03;;;7.60;99.90;;;;;;5095968;28;20274;-74
2023/03/14 10:41:00;;;;;;;17.83;3.22;;;7.50;99.90;;;;;;5094895;28;20428;-76
2023/03/14 10:43:35;;;;;;;22.63;3.30;;;7.50;99.90;;;;;;5094485;28;20059;-75
2023/03/14 10:46:17;;;;;;;13.70;3.03;;;7.40;99.90;;;;;;5095266;28;20591;-74
2023/03/14 10:48:45;;;;;;;16.73;2.97;;;7.30;99.90;;;;;;5096036;28;20051;-76
2023/03/14 10:51:17;;;;;;;13.37;2.60;;;7.30;99.90;;;;;;5095104;28;20652;-75
2023/03/14 10:53:48;;;;;;;13.63;2.83;;;7.40;99.90;;;;;;5095375;28;20419;-75
2023/03/14 10:56:19;;;;;;;13.60;2.10;;;7.30;99.90;;;;;;5093370;28;20305;-75
2023/03/14 10:58:51;;;;;;;15.77;2.57;;;7.30;99.90;;;;;;5096092;28;20286;-76
2023/03/14 11:01:37;;;;;;;17.40;2.80;;;7.30;99.90;;;;;;5095900;28;20290;-81
2023/03/14 11:04:24;;;;;;;13.97;2.10;;;7.40;99.90;;;;;;5095394;28;20354;-75
2023/03/14 11:07:19;;;;;;;17.03;2.90;;;7.40;99.90;;;;;;5095774;28;20291;-80
2023/03/14 11:10:02;;;;;;;14.90;2.15;;;7.40;99.90;;;;;;5095269;28;20281;-76
2023/03/14 11:13:09;;;;;;;12.97;2.40;;;7.30;99.90;;;;;;5095256;28;20059;-79
2023/03/14 11:15:57;;;;;;;14.23;2.53;;;7.30;99.90;;;;;;5060940;28;20290;-76
2023/03/14 11:18:41;;;;;;;12.40;2.30;;;7.30;99.90;;;;;;5095394;28;20282;-79
2023/03/14 11:21:25;;;;;;;10.93;2.40;;;7.30;99.90;;;;;;5094878;28;20290;-80
2023/03/14 11:24:02;;;;;;;8.30;1.80;;;7.40;99.90;;;;;;5095340;28;20305;-80
2023/03/14 11:26:41;;;;;;;11.03;1.90;;;7.40;99.90;;;;;;5095049;28;20361;-81
2023/03/14 11:29:58;;;;;;;9.97;1.93;;;7.50;99.90;;;;;;5077208;28;20298;-75
2023/03/14 11:32:46;;;;;;;7.45;1.45;;;7.50;99.90;;;;;;5013209;28;20285;-74
2023/03/14 11:35:27;;;;;;;6.17;1.40;;;7.50;99.90;;;;;;5094731;28;20048;-73
2023/03/14 11:38:02;;;;;;;5.93;1.67;;;7.40;99.90;;;;;;5094711;28;20276;-83
2023/03/14 11:40:28;;;;;;;;;;;7.40;99.90;;;;;;5095876;28;20332;-76
2023/03/14 11:43:00;;;;;;;11.10;2.07;;;7.40;99.90;;;;;;5095377;28;20393;-76
2023/03/14 11:45:37;;;;;;;8.93;1.43;;;7.40;99.90;;;;;;5094495;28;20135;-76
2023/03/14 11:48:20;;;;;;;8.33;2.30;;;7.40;99.90;;;;;;5095347;28;20353;-75
2023/03/14 11:50:49;;;;;;;10.07;1.57;;;7.50;97.70;;;;;;5094994;28;20622;-77
2023/03/14 11:53:47;;;;;;;11.33;2.03;;;7.60;99.90;;;;;;5094450;28;20270;-75
2023/03/14 11:56:36;;;;;;;10.87;1.87;;;7.70;99.90;;;;;;5093067;28;20289;-76
2023/03/14 11:59:14;;;;;;;13.63;2.00;;;7.90;99.90;;;;;;5094461;28;20278;-75
2023/03/14 12:02:00;;;;;;;14.57;2.50;;;7.80;99.90;;;;;;5094258;28;20285;-75
2023/03/14 12:04:47;;;;;;;15.90;2.53;;;7.90;99.90;;;;;;5094186;28;20298;-77
2023/03/14 12:07:42;;;;;;;12.03;2.47;;;7.90;99.90;;;;;;5094173;28;20278;-79
2023/03/14 12:10:09;;;;;;;16.98;3.13;;;7.90;99.90;;;;;;5094694;28;20289;-74
2023/03/14 12:12:35;;;;;;;17.53;3.30;;;7.90;99.90;;;;;;5094103;28;20100;-82
2023/03/14 12:15:03;;;;;;;17.10;3.23;;;7.90;99.90;;;;;;5094549;28;20606;-73
2023/03/14 12:17:36;;;;;;;13.60;2.93;;;7.80;99.90;;;;;;5093388;28;20274;-74
2023/03/14 12:20:14;;;;;;;14.03;1.87;;;7.80;99.90;;;;;;5093920;28;20322;-73
2023/03/14 12:22:47;;;;;;;13.67;2.40;;;7.80;99.90;;;;;;5093907;28;20365;-75
2023/03/14 12:25:22;;;;;;;14.73;2.60;;;7.80;99.90;;;;;;5092888;28;20304;-75
2023/03/14 12:27:56;;;;;;;13.48;2.28;;;7.80;99.90;;;;;;5093804;28;20290;-77
2023/03/14 12:30:40;;;;;;;9.93;1.80;;;7.80;99.90;;;;;;5093790;28;20110;-74
2023/03/14 12:33:17;;;;;;;9.80;1.90;;;7.80;99.90;;;;;;5093760;28;20036;-75
2023/03/14 12:36:04;;;;;;;14.47;2.20;;;7.80;99.90;;;;;;5093702;28;20322;-75
2023/03/14 12:38:36;;;;;;;14.60;2.90;;;7.90;99.90;;;;;;5093748;28;20287;-83
2023/03/14 12:41:26;;;;;;;8.83;1.90;;;7.90;99.90;;;;;;5093912;28;20369;-77
2023/03/14 12:43:52;;;;;;;9.93;1.97;;;7.90;99.90;;;;;;5094329;28;20402;-77
2023/03/14 12:46:17;;;;;;;11.07;2.13;;;7.80;99.90;;;;;;5093539;28;20766;-77
2023/03/14 12:48:54;;;;;;;9.90;1.60;;;7.90;99.90;;;;;;5093264;28;20056;-77
2023/03/14 12:51:28;;;;;;;11.17;2.50;;;7.70;99.90;;;;;;5094374;28;20131;-79
2023/03/14 12:54:30;;;;;;;12.37;1.73;;;7.70;99.90;;;;;;5093597;28;20270;-80
2023/03/14 12:57:10;;;;;;;12.47;2.23;;;7.60;98.70;;;;;;5093779;28;20355;-79
2023/03/14 12:59:47;;;;;;;11.07;2.47;;;7.60;99.90;;;;;;5093753;28;20730;-81